createdAt,value
2022-09-21T06:10:26.131Z,11.13
2022-09-21T06:12:54.270Z,10.23
2022-09-21T06:15:22.496Z,8.98
2022-09-21T06:17:50.639Z,9.32
2022-09-21T06:20:18.791Z,9.00
2022-09-21T06:22:47.009Z,9.38
2022-09-21T06:25:15.296Z,10.98
2022-09-21T06:27:44.748Z,10.60
2022-09-21T06:30:13.455Z,9.38
2022-09-21T06:32:41.582Z,10.63
2022-09-21T06:35:10.192Z,10.15
2022-09-21T06:37:40.038Z,12.18
2022-09-21T06:40:33.236Z,9.65
2022-09-21T06:43:39.302Z,12.20
2022-09-21T06:49:53.857Z,12.18
2022-09-21T06:52:22.051Z,11.77
2022-09-21T06:54:52.209Z,9.70
2022-09-21T06:58:13.107Z,9.55
2022-09-21T07:00:41.254Z,10.48
2022-09-21T07:03:12.725Z,10.73
2022-09-21T07:05:48.270Z,10.18
2022-09-21T07:11:04.649Z,10.77
2022-09-21T07:13:33.080Z,10.20
2022-09-21T07:16:05.125Z,10.10
2022-09-21T07:18:42.644Z,9.65
2022-09-21T07:21:14.751Z,11.82
2022-09-21T07:23:42.875Z,9.63
2022-09-21T07:26:11.716Z,11.45
2022-09-21T07:28:42.839Z,11.85
2022-09-21T07:31:11.779Z,10.20
2022-09-21T07:33:40.129Z,9.02
2022-09-21T07:36:11.190Z,9.57
2022-09-21T07:38:41.423Z,9.73
2022-09-21T07:41:10.120Z,9.90
2022-09-21T07:43:39.217Z,8.93
2022-09-21T07:46:11.164Z,9.27
2022-09-21T08:02:40.863Z,11.32
2022-09-21T08:05:12.047Z,10.80
2022-09-21T08:07:40.229Z,9.73
2022-09-21T08:10:08.937Z,10.18
2022-09-21T08:12:37.140Z,8.63
2022-09-21T08:15:05.761Z,8.57
2022-09-21T08:17:34.147Z,13.85
2022-09-21T08:20:03.930Z,8.48
2022-09-21T08:22:32.027Z,8.43
2022-09-21T08:25:00.128Z,8.57
2022-09-21T08:27:28.299Z,8.98
2022-09-21T08:33:23.074Z,9.88
2022-09-21T08:39:47.121Z,10.30
2022-09-21T08:45:33.851Z,9.85
2022-09-21T08:48:04.297Z,8.93
2022-09-21T08:50:35.347Z,8.77
2022-09-21T08:53:06.363Z,8.65
2022-09-21T08:55:35.946Z,8.40
2022-09-21T08:58:04.120Z,7.78
2022-09-21T09:00:37.934Z,8.63
2022-09-21T09:03:21.109Z,7.93
2022-09-21T09:05:52.033Z,8.73
2022-09-21T09:08:28.545Z,7.88
2022-09-21T09:11:04.063Z,8.05
2022-09-21T09:13:38.262Z,8.05
2022-09-21T09:16:09.472Z,8.07
2022-09-21T09:18:43.790Z,7.63
2022-09-21T09:21:15.982Z,8.23
2022-09-21T09:23:50.334Z,8.75
2022-09-21T09:26:23.311Z,8.93
2022-09-21T09:32:05.829Z,7.30
2022-09-21T09:45:43.746Z,7.88
2022-09-21T09:48:23.162Z,7.55
2022-09-21T09:54:28.632Z,9.15
2022-09-21T10:00:55.183Z,7.70
2022-09-21T10:03:25.437Z,7.28
2022-09-21T10:05:53.986Z,7.38
2022-09-21T10:08:29.228Z,7.35
2022-09-21T10:10:57.732Z,7.72
2022-09-21T10:13:28.624Z,7.63
2022-09-21T10:15:59.102Z,7.30
2022-09-21T10:18:37.821Z,8.02
2022-09-21T10:21:07.968Z,7.38
2022-09-21T10:23:36.897Z,8.07
2022-09-21T10:26:06.734Z,7.40
2022-09-21T10:28:35.117Z,7.40
2022-09-21T10:31:10.754Z,7.38
2022-09-21T10:33:49.094Z,7.40
2022-09-21T10:36:31.312Z,7.53
2022-09-21T10:39:14.597Z,7.50
2022-09-21T10:41:42.722Z,7.38
2022-09-21T10:44:17.007Z,7.47
2022-09-21T10:46:46.231Z,7.30
2022-09-21T10:49:18.889Z,8.00
2022-09-21T10:51:47.646Z,8.07
2022-09-21T10:54:20.551Z,7.10
2022-09-21T10:56:55.879Z,7.57
2022-09-21T10:59:26.317Z,7.20
2022-09-21T11:01:55.684Z,7.93
2022-09-21T11:04:34.037Z,7.53
2022-09-21T11:07:05.522Z,7.45
2022-09-21T11:09:36.139Z,7.93
2022-09-21T11:12:07.664Z,7.63
2022-09-21T11:14:43.768Z,8.70
2022-09-21T11:17:13.991Z,7.82
2022-09-21T11:19:46.937Z,8.18
2022-09-21T11:22:20.063Z,8.18
2022-09-21T11:24:52.370Z,7.72
2022-09-21T11:27:23.290Z,7.65
2022-09-21T11:29:56.810Z,7.47
2022-09-21T11:32:39.105Z,7.15
2022-09-21T11:35:20.854Z,7.30
2022-09-21T11:37:57.595Z,7.13
2022-09-21T11:40:45.234Z,7.13
2022-09-21T11:43:26.994Z,7.05
2022-09-21T11:46:00.255Z,7.05
2022-09-21T11:48:35.531Z,6.65
2022-09-21T11:51:11.881Z,6.93
2022-09-21T11:53:46.618Z,7.13
2022-09-21T11:56:24.310Z,6.65
2022-09-21T11:58:55.088Z,6.88
2022-09-21T12:01:32.188Z,6.22
2022-09-21T12:04:07.377Z,6.80
2022-09-21T12:06:44.183Z,6.35
2022-09-21T12:09:30.014Z,6.53
2022-09-21T12:12:04.189Z,6.40
2022-09-21T12:14:55.067Z,6.78
2022-09-21T12:17:28.437Z,8.88
2022-09-21T12:20:02.168Z,6.82
2022-09-21T12:22:33.497Z,6.63
2022-09-21T12:25:03.681Z,6.25
2022-09-21T12:27:34.826Z,6.78
2022-09-21T12:30:05.481Z,7.07
2022-09-21T12:32:49.434Z,7.07
2022-09-21T12:35:19.686Z,7.18
2022-09-21T12:37:53.566Z,6.72
2022-09-21T12:40:25.130Z,6.57
2022-09-21T12:42:56.725Z,6.45
2022-09-21T12:45:28.758Z,6.53
2022-09-21T12:47:59.417Z,6.72
2022-09-21T12:50:29.531Z,6.35
2022-09-21T12:52:59.893Z,7.22
2022-09-21T12:55:34.007Z,8.05
2022-09-21T12:58:21.388Z,8.13
2022-09-21T13:00:54.984Z,7.85
2022-09-21T13:03:27.641Z,8.13
2022-09-21T13:06:06.669Z,8.77
2022-09-21T13:08:39.844Z,9.73
2022-09-21T13:11:08.991Z,9.60
2022-09-21T13:13:39.583Z,9.32
2022-09-21T13:16:08.786Z,8.48
2022-09-21T13:18:38.605Z,9.55
2022-09-21T13:21:17.082Z,10.23
2022-09-21T13:23:54.507Z,8.20
2022-09-21T13:26:32.093Z,8.45
2022-09-21T13:29:07.795Z,8.68
2022-09-21T13:31:43.779Z,9.98
2022-09-21T13:34:32.769Z,9.98
2022-09-21T13:37:24.995Z,10.32
2022-09-21T13:39:57.669Z,9.23
2022-09-21T13:42:44.515Z,8.93
2022-09-21T13:45:29.472Z,9.30
2022-09-21T13:48:01.276Z,9.43
2022-09-21T13:50:31.228Z,11.05
2022-09-21T13:53:00.856Z,9.88
2022-09-21T13:55:31.943Z,12.20
2022-09-21T13:58:04.502Z,9.68
2022-09-21T14:00:35.481Z,8.38
2022-09-21T14:03:05.922Z,9.30
2022-09-21T14:05:36.336Z,8.70
2022-09-21T14:08:06.151Z,9.02
2022-09-21T14:10:36.745Z,9.13
2022-09-21T14:13:07.398Z,8.70
2022-09-21T14:15:37.313Z,9.82
2022-09-21T14:18:20.435Z,9.20
2022-09-21T14:21:07.684Z,10.65
2022-09-21T14:23:36.541Z,8.90
2022-09-21T14:26:20.772Z,9.65
2022-09-21T14:28:52.310Z,9.50
2022-09-21T14:31:22.591Z,9.48
2022-09-21T14:33:53.467Z,10.82
2022-09-21T14:36:23.882Z,9.18
2022-09-21T14:38:54.928Z,10.20
2022-09-21T14:41:25.679Z,8.50
2022-09-21T14:43:54.737Z,9.07
2022-09-21T14:46:38.087Z,9.98
2022-09-21T14:49:12.800Z,9.25
2022-09-21T14:51:44.352Z,8.38
2022-09-21T14:54:19.616Z,9.25
2022-09-21T14:56:55.465Z,8.10
2022-09-21T14:59:35.669Z,7.75
2022-09-21T15:02:09.106Z,7.57
2022-09-21T15:04:46.222Z,8.23
2022-09-21T15:07:47.746Z,9.57
2022-09-21T15:10:37.852Z,12.43
2022-09-21T15:13:12.550Z,9.55
2022-09-21T15:15:44.257Z,9.70
2022-09-21T15:18:20.002Z,10.32
2022-09-21T15:21:01.708Z,9.02
2022-09-21T15:23:30.578Z,9.80
2022-09-21T15:26:00.313Z,9.52
2022-09-21T15:28:57.946Z,7.93
2022-09-21T15:31:23.534Z,9.27
2022-09-21T15:33:53.382Z,9.98
2022-09-21T15:36:22.323Z,10.18
2022-09-21T15:38:50.667Z,9.63
2022-09-21T15:41:39.389Z,10.60
2022-09-21T15:44:14.704Z,9.48
2022-09-21T15:46:43.924Z,9.88
2022-09-21T15:49:15.270Z,10.48
2022-09-21T15:51:45.848Z,11.95
2022-09-21T15:54:21.202Z,9.98
2022-09-21T15:56:49.440Z,10.73
2022-09-21T15:59:20.815Z,11.02
2022-09-21T16:01:50.677Z,9.82
2022-09-21T16:04:21.795Z,12.88
2022-09-21T16:06:59.290Z,10.07
2022-09-21T16:09:38.349Z,10.52
2022-09-21T16:12:30.665Z,12.20
2022-09-21T16:15:04.251Z,10.70
2022-09-21T16:17:37.379Z,10.45
2022-09-21T16:20:19.537Z,10.85
2022-09-21T16:22:48.653Z,9.52
2022-09-21T16:25:24.990Z,10.75
2022-09-21T16:27:54.310Z,10.63
2022-09-21T16:30:51.032Z,10.70
2022-09-21T16:33:41.375Z,11.93
2022-09-21T16:36:29.491Z,12.70
2022-09-21T16:38:57.606Z,11.75
2022-09-21T16:41:27.935Z,10.25
2022-09-21T16:43:58.538Z,10.82
2022-09-21T16:46:27.246Z,10.15
2022-09-21T16:48:56.832Z,11.73
2022-09-21T16:51:25.393Z,10.48
2022-09-21T16:53:53.554Z,12.77
2022-09-21T16:56:21.792Z,10.68
2022-09-21T16:58:49.930Z,12.15
2022-09-21T17:01:20.890Z,11.25
2022-09-21T17:03:49.742Z,13.20
2022-09-21T17:06:19.888Z,10.55
2022-09-21T17:08:48.613Z,12.27
2022-09-21T17:11:19.779Z,9.98
2022-09-21T17:13:48.126Z,9.73
2022-09-21T17:16:18.661Z,10.63
2022-09-21T17:18:46.919Z,10.80
2022-09-21T17:21:15.561Z,11.07
2022-09-21T17:23:45.320Z,10.20
2022-09-21T17:26:20.952Z,11.18
2022-09-21T17:28:49.082Z,10.60
2022-09-21T17:31:18.001Z,11.00
2022-09-21T17:33:46.116Z,10.27
2022-09-21T17:36:14.793Z,9.52
2022-09-21T17:38:43.014Z,9.73
2022-09-21T17:41:18.185Z,10.00
2022-09-21T17:43:51.247Z,10.00
2022-09-21T17:46:23.159Z,10.35
2022-09-21T17:48:51.634Z,11.55
2022-09-21T17:51:33.934Z,11.27
2022-09-21T17:54:02.430Z,9.88
2022-09-21T17:56:40.625Z,9.68
2022-09-21T17:59:15.472Z,10.18
2022-09-21T18:01:43.760Z,9.77
2022-09-21T18:04:12.077Z,10.35
2022-09-21T18:06:40.437Z,9.98
2022-09-21T18:09:08.929Z,10.23
2022-09-21T18:11:52.318Z,9.63
2022-09-21T18:14:25.902Z,9.73
2022-09-21T18:16:58.644Z,9.68
2022-09-21T18:19:32.169Z,9.50
2022-09-21T18:22:03.253Z,9.88
2022-09-21T18:24:32.276Z,10.40
2022-09-21T18:27:02.314Z,9.98
2022-09-21T18:29:40.769Z,10.23
2022-09-21T18:32:17.974Z,9.57
2022-09-21T18:35:00.981Z,9.90
2022-09-21T18:37:34.271Z,9.45
2022-09-21T18:40:06.041Z,9.52
2022-09-21T18:42:45.348Z,9.68
2022-09-21T18:45:15.404Z,9.98
2022-09-21T18:47:48.591Z,9.48
2022-09-21T18:50:21.437Z,9.27
2022-09-21T18:52:54.162Z,10.02
2022-09-21T18:55:26.915Z,9.93
2022-09-21T18:57:57.268Z,9.60
2022-09-21T19:00:30.947Z,9.20
2022-09-21T19:03:16.503Z,10.05
2022-09-21T19:05:49.097Z,9.38
2022-09-21T19:08:21.448Z,9.43
2022-09-21T19:10:52.806Z,9.27
2022-09-21T19:13:33.218Z,9.93
2022-09-21T19:16:05.370Z,11.18
2022-09-21T19:18:37.950Z,9.63
2022-09-21T19:21:12.361Z,10.52
2022-09-21T19:23:46.094Z,10.07
2022-09-21T19:26:17.419Z,9.82
2022-09-21T19:28:55.753Z,9.93
2022-09-21T19:31:24.067Z,9.32
2022-09-21T19:33:52.387Z,10.25
2022-09-21T19:36:20.906Z,10.38
2022-09-21T19:38:49.285Z,9.88
2022-09-21T19:41:24.981Z,9.88
2022-09-21T19:43:59.106Z,9.10
2022-09-21T19:46:33.959Z,9.35
2022-09-21T19:49:07.411Z,10.07
2022-09-21T19:51:38.613Z,9.65
2022-09-21T19:54:28.769Z,10.25
2022-09-21T19:57:15.085Z,10.43
2022-09-21T19:59:45.758Z,9.88
2022-09-21T20:02:15.053Z,10.23
2022-09-21T20:04:48.781Z,10.43
2022-09-21T20:07:20.222Z,9.88
2022-09-21T20:09:56.668Z,9.98
2022-09-21T20:12:27.077Z,10.30
2022-09-21T20:15:01.461Z,10.13
2022-09-21T20:17:36.125Z,9.73
2022-09-21T20:20:09.238Z,11.38
2022-09-21T20:22:38.044Z,10.48
2022-09-21T20:25:11.904Z,8.30
2022-09-21T20:27:41.138Z,10.15
2022-09-21T20:30:12.741Z,10.50
2022-09-21T20:32:46.698Z,11.38
2022-09-21T20:35:17.100Z,10.25
2022-09-21T20:37:45.617Z,10.32
2022-09-21T20:40:14.308Z,9.57
2022-09-21T20:42:43.098Z,10.43
2022-09-21T20:45:13.737Z,10.98
2022-09-21T20:47:41.933Z,9.90
2022-09-21T20:50:12.725Z,10.65
2022-09-21T20:52:41.621Z,9.63
2022-09-21T20:55:10.775Z,10.98
2022-09-21T20:57:39.701Z,10.45
2022-09-21T21:00:09.800Z,9.93
2022-09-21T21:02:39.635Z,10.80
2022-09-21T21:05:08.764Z,10.57
2022-09-21T21:07:37.417Z,9.57
2022-09-21T21:10:05.995Z,10.30
2022-09-21T21:12:34.150Z,12.65
2022-09-21T21:15:02.285Z,12.38
2022-09-21T21:17:31.085Z,13.50
2022-09-21T21:20:00.614Z,12.98
2022-09-21T21:22:28.776Z,14.85
2022-09-21T21:24:56.877Z,10.05
2022-09-21T21:27:25.756Z,10.50
2022-09-21T21:29:54.737Z,11.63
2022-09-21T21:32:25.143Z,11.23
2022-09-21T21:34:53.742Z,13.05
2022-09-21T21:37:24.856Z,10.95
2022-09-21T21:39:53.092Z,11.88
2022-09-21T21:42:21.592Z,9.52
2022-09-21T21:44:50.378Z,11.63
2022-09-21T21:47:38.892Z,11.98
2022-09-21T21:50:07.294Z,15.00
2022-09-21T21:52:36.762Z,13.77
2022-09-21T21:55:05.366Z,11.23
2022-09-21T21:57:33.492Z,12.68
2022-09-21T22:00:01.634Z,12.52
2022-09-21T22:02:30.195Z,11.98
2022-09-21T22:04:58.332Z,11.68
2022-09-21T22:07:26.429Z,10.55
2022-09-21T22:09:56.080Z,9.75
2022-09-21T22:12:25.985Z,11.43
2022-09-21T22:14:54.103Z,10.90
2022-09-21T22:17:23.219Z,11.57
2022-09-21T22:19:51.358Z,11.05
2022-09-21T22:22:19.492Z,10.40
2022-09-21T22:24:47.997Z,10.50
2022-09-21T22:27:18.079Z,11.23
2022-09-21T22:29:46.214Z,11.80
2022-09-21T22:32:14.436Z,11.40
2022-09-21T22:34:42.566Z,12.32
2022-09-21T22:37:10.733Z,11.05
2022-09-21T22:39:38.825Z,12.00
2022-09-21T22:42:07.056Z,11.07
2022-09-21T22:44:36.525Z,12.10
2022-09-21T22:47:04.744Z,12.40
2022-09-21T22:49:32.870Z,17.30
2022-09-21T22:52:01.010Z,13.27
2022-09-21T22:54:29.125Z,10.38
2022-09-21T22:56:57.291Z,10.45
2022-09-21T22:59:25.509Z,12.13
2022-09-21T23:01:56.361Z,10.98
2022-09-21T23:04:27.573Z,12.00
2022-09-21T23:06:55.725Z,14.20
2022-09-21T23:09:23.882Z,11.18
2022-09-21T23:11:53.733Z,10.88
2022-09-21T23:14:24.841Z,12.02
2022-09-21T23:16:53.064Z,11.73
2022-09-21T23:19:22.509Z,10.88
2022-09-21T23:21:51.298Z,11.18
2022-09-21T23:24:19.983Z,10.82
2022-09-21T23:26:50.349Z,11.07
2022-09-21T23:29:18.462Z,12.82
2022-09-21T23:31:46.733Z,10.93
2022-09-21T23:34:15.377Z,14.52
2022-09-21T23:36:45.449Z,10.05
2022-09-21T23:39:14.285Z,12.30
2022-09-21T23:41:42.451Z,13.43
2022-09-21T23:44:10.649Z,12.10
2022-09-21T23:46:39.740Z,12.18
2022-09-21T23:49:08.034Z,10.68
2022-09-21T23:51:36.393Z,11.18
2022-09-21T23:54:05.982Z,13.55
2022-09-21T23:56:34.426Z,11.00
2022-09-21T23:59:02.562Z,11.73
